FDX251 KSFO-KORD
Flight info
| Callsign | FDX251 |
|---|---|
| Flight time | N/A |
| Altitude | 37000 |
| Route | TRUKN2 MOGEE Q122 VIGGR MYRRS FYTTE7 |
| Aircraft | B77L/H-SDE1E2E3FGHIJ2J3J4J5M1RWXY/LB1D1 |
Departure
| Time | 2026-05-05 03:29 |
|---|---|
| Airport | San Francisco International Airport (KSFO) |
Arrival
| Time | N/A |
|---|---|
| Airport | Chicago O'Hare International Airport (KORD) |
| Time | Latitude | Longitude | Altitude | Speed | Heading |
|---|---|---|---|---|---|
| 2026-05-05 02:52 | 37.63712 | -122.38831 | 21 ft | 0 kts | 60° |
| 2026-05-05 03:10 | 37.63712 | -122.38833 | 21 ft | 1 kts | 60° |
| 2026-05-05 03:11 | 37.63703 | -122.38851 | 26 ft | 3 kts | 51° |
| 2026-05-05 03:11 | 37.63690 | -122.38870 | 25 ft | 3 kts | 52° |
| 2026-05-05 03:11 | 37.63681 | -122.38885 | 25 ft | 2 kts | 63° |
| 2026-05-05 03:11 | 37.63676 | -122.38901 | 25 ft | 3 kts | 97° |
| 2026-05-05 03:12 | 37.63678 | -122.38913 | 24 ft | 3 kts | 141° |
| 2026-05-05 03:12 | 37.63694 | -122.38926 | 24 ft | 3 kts | 154° |
| 2026-05-05 03:12 | 37.63712 | -122.38937 | 22 ft | 3 kts | 152° |
| 2026-05-05 03:12 | 37.63721 | -122.38943 | 23 ft | 0 kts | 149° |
| 2026-05-05 03:16 | 37.63705 | -122.38931 | 23 ft | 11 kts | 149° |
| 2026-05-05 03:16 | 37.63626 | -122.38871 | 24 ft | 14 kts | 149° |
| 2026-05-05 03:16 | 37.63543 | -122.38811 | 21 ft | 14 kts | 161° |
| 2026-05-05 03:16 | 37.63462 | -122.38871 | 21 ft | 15 kts | 237° |
| 2026-05-05 03:17 | 37.63424 | -122.38993 | 23 ft | 15 kts | 248° |
| 2026-05-05 03:17 | 37.63382 | -122.39113 | 21 ft | 15 kts | 242° |
| 2026-05-05 03:17 | 37.63299 | -122.39180 | 21 ft | 15 kts | 174° |
| 2026-05-05 03:17 | 37.63198 | -122.39146 | 25 ft | 15 kts | 203° |
| 2026-05-05 03:18 | 37.63143 | -122.39244 | 27 ft | 14 kts | 221° |
| 2026-05-05 03:18 | 37.63053 | -122.39236 | 27 ft | 14 kts | 156° |
| 2026-05-05 03:18 | 37.62968 | -122.39177 | 26 ft | 14 kts | 134° |
| 2026-05-05 03:18 | 37.62918 | -122.39074 | 28 ft | 14 kts | 117° |
| 2026-05-05 03:19 | 37.62827 | -122.38858 | 28 ft | 14 kts | 118° |
| 2026-05-05 03:19 | 37.62781 | -122.38750 | 27 ft | 14 kts | 118° |
| 2026-05-05 03:19 | 37.62730 | -122.38626 | 28 ft | 17 kts | 117° |
| 2026-05-05 03:20 | 37.62673 | -122.38489 | 27 ft | 18 kts | 118° |
| 2026-05-05 03:20 | 37.62613 | -122.38348 | 24 ft | 19 kts | 117° |
| 2026-05-05 03:20 | 37.62550 | -122.38197 | 24 ft | 19 kts | 118° |
| 2026-05-05 03:20 | 37.62487 | -122.38049 | 25 ft | 19 kts | 117° |
| 2026-05-05 03:21 | 37.62424 | -122.37899 | 28 ft | 19 kts | 118° |
| 2026-05-05 03:21 | 37.62362 | -122.37751 | 31 ft | 19 kts | 117° |
| 2026-05-05 03:21 | 37.62296 | -122.37594 | 26 ft | 21 kts | 117° |
| 2026-05-05 03:21 | 37.62229 | -122.37432 | 21 ft | 21 kts | 118° |
| 2026-05-05 03:22 | 37.62159 | -122.37267 | 18 ft | 22 kts | 118° |
| 2026-05-05 03:22 | 37.62088 | -122.37096 | 18 ft | 22 kts | 118° |
| 2026-05-05 03:22 | 37.62018 | -122.36929 | 21 ft | 21 kts | 117° |
| 2026-05-05 03:22 | 37.61951 | -122.36766 | 28 ft | 20 kts | 117° |
| 2026-05-05 03:23 | 37.61887 | -122.36617 | 26 ft | 19 kts | 118° |
| 2026-05-05 03:23 | 37.61825 | -122.36467 | 27 ft | 19 kts | 118° |
| 2026-05-05 03:23 | 37.61763 | -122.36322 | 24 ft | 18 kts | 118° |
| 2026-05-05 03:23 | 37.61705 | -122.36181 | 25 ft | 18 kts | 118° |
| 2026-05-05 03:24 | 37.61683 | -122.36128 | 24 ft | 1 kts | 117° |
| 2026-05-05 03:24 | 37.61676 | -122.36112 | 24 ft | 3 kts | 117° |
| 2026-05-05 03:24 | 37.61663 | -122.36082 | 24 ft | 5 kts | 118° |
| 2026-05-05 03:24 | 37.61646 | -122.36040 | 20 ft | 6 kts | 118° |
| 2026-05-05 03:25 | 37.61627 | -122.35995 | 23 ft | 6 kts | 118° |
| 2026-05-05 03:25 | 37.61608 | -122.35951 | 26 ft | 6 kts | 118° |
| 2026-05-05 03:25 | 37.61599 | -122.35931 | 25 ft | 0 kts | 118° |
| 2026-05-05 03:25 | 37.61599 | -122.35930 | 25 ft | 1 kts | 118° |
| 2026-05-05 03:26 | 37.61595 | -122.35921 | 24 ft | 0 kts | 118° |
| 2026-05-05 03:27 | 37.61580 | -122.35886 | 27 ft | 10 kts | 118° |
| 2026-05-05 03:27 | 37.61550 | -122.35814 | 28 ft | 8 kts | 117° |
| 2026-05-05 03:27 | 37.61534 | -122.35774 | 29 ft | 0 kts | 117° |
| 2026-05-05 03:27 | 37.61530 | -122.35765 | 28 ft | 7 kts | 117° |
| 2026-05-05 03:28 | 37.61489 | -122.35696 | 29 ft | 10 kts | 143° |
| 2026-05-05 03:28 | 37.61420 | -122.35696 | 27 ft | 11 kts | 201° |
| 2026-05-05 03:28 | 37.61384 | -122.35771 | 26 ft | 12 kts | 280° |
| 2026-05-05 03:28 | 37.61481 | -122.36021 | 23 ft | 68 kts | 297° |
| 2026-05-05 03:29 | 37.61819 | -122.36825 | 25 ft | 137 kts | 297° |
| 2026-05-05 03:29 | 37.62342 | -122.38059 | 235 ft | 169 kts | 297° |
| 2026-05-05 03:29 | 37.62925 | -122.39432 | 638 ft | 189 kts | 298° |
| 2026-05-05 03:29 | 37.63738 | -122.40769 | 1207 ft | 196 kts | 322° |
| 2026-05-05 03:30 | 37.65025 | -122.41326 | 1958 ft | 203 kts | 359° |
| 2026-05-05 03:30 | 37.66412 | -122.40762 | 2528 ft | 223 kts | 32° |
| 2026-05-05 03:30 | 37.67485 | -122.39233 | 2913 ft | 250 kts | 62° |
| 2026-05-05 03:30 | 37.68089 | -122.37054 | 3279 ft | 275 kts | 75° |
| 2026-05-05 03:31 | 37.68527 | -122.34673 | 4236 ft | 273 kts | 77° |
| 2026-05-05 03:31 | 37.68969 | -122.32409 | 5394 ft | 265 kts | 77° |
| 2026-05-05 03:31 | 37.69482 | -122.30167 | 6392 ft | 264 kts | 75° |
| 2026-05-05 03:31 | 37.69844 | -122.28690 | 6846 ft | 270 kts | 69° |
| 2026-05-05 03:32 | 37.70862 | -122.26649 | 7488 ft | 277 kts | 46° |
| 2026-05-05 03:32 | 37.72645 | -122.24374 | 8768 ft | 272 kts | 45° |
| 2026-05-05 03:32 | 37.73537 | -122.23231 | 9245 ft | 277 kts | 46° |
| 2026-05-05 03:32 | 37.74857 | -122.21443 | 10111 ft | 277 kts | 46° |
| 2026-05-05 03:33 | 37.76170 | -122.19646 | 10873 ft | 281 kts | 47° |
| 2026-05-05 03:33 | 37.77564 | -122.17749 | 11235 ft | 306 kts | 46° |
| 2026-05-05 03:33 | 37.79066 | -122.15739 | 11677 ft | 321 kts | 46° |
| 2026-05-05 03:33 | 37.80641 | -122.13618 | 12225 ft | 341 kts | 46° |
| 2026-05-05 03:34 | 37.82329 | -122.11356 | 12754 ft | 359 kts | 46° |
| 2026-05-05 03:34 | 37.84044 | -122.09075 | 13648 ft | 365 kts | 46° |
| 2026-05-05 03:34 | 37.85817 | -122.06680 | 14395 ft | 377 kts | 47° |
| 2026-05-05 03:34 | 37.87592 | -122.04248 | 15214 ft | 382 kts | 47° |
| 2026-05-05 03:35 | 37.89399 | -122.01758 | 16138 ft | 380 kts | 48° |
| 2026-05-05 03:35 | 37.91170 | -121.99305 | 17515 ft | 373 kts | 49° |
| 2026-05-05 03:35 | 37.92895 | -121.96858 | 18485 ft | 375 kts | 49° |
| 2026-05-05 03:35 | 37.94629 | -121.94392 | 19155 ft | 381 kts | 49° |
| 2026-05-05 03:36 | 37.96411 | -121.91849 | 19830 ft | 387 kts | 50° |
| 2026-05-05 03:36 | 37.98175 | -121.89304 | 20661 ft | 388 kts | 50° |
| 2026-05-05 03:36 | 37.99967 | -121.86734 | 21491 ft | 390 kts | 50° |
| 2026-05-05 03:36 | 38.01778 | -121.84153 | 22277 ft | 393 kts | 49° |
| 2026-05-05 03:37 | 38.03613 | -121.81553 | 23038 ft | 396 kts | 49° |
| 2026-05-05 03:37 | 38.05469 | -121.78929 | 23763 ft | 399 kts | 49° |
| 2026-05-05 03:37 | 38.07336 | -121.76292 | 24337 ft | 403 kts | 49° |
| 2026-05-05 03:37 | 38.09195 | -121.73669 | 24895 ft | 407 kts | 49° |
| 2026-05-05 03:38 | 38.11096 | -121.70981 | 25449 ft | 411 kts | 49° |
| 2026-05-05 03:38 | 38.13020 | -121.68261 | 26009 ft | 414 kts | 49° |
| 2026-05-05 03:38 | 38.14950 | -121.65529 | 26547 ft | 418 kts | 49° |
| 2026-05-05 03:38 | 38.16915 | -121.62744 | 27114 ft | 422 kts | 49° |
| 2026-05-05 03:39 | 38.18859 | -121.59987 | 27621 ft | 426 kts | 49° |
| 2026-05-05 03:39 | 38.20855 | -121.57155 | 28164 ft | 429 kts | 49° |
| 2026-05-05 03:39 | 38.22848 | -121.54322 | 28678 ft | 433 kts | 49° |
| 2026-05-05 03:39 | 38.24864 | -121.51456 | 29146 ft | 436 kts | 50° |
| 2026-05-05 03:40 | 38.26893 | -121.48568 | 29608 ft | 439 kts | 50° |
| 2026-05-05 03:40 | 38.28950 | -121.45637 | 30062 ft | 442 kts | 50° |
| 2026-05-05 03:40 | 38.31006 | -121.42707 | 30541 ft | 442 kts | 49° |
| 2026-05-05 03:40 | 38.33028 | -121.39821 | 31060 ft | 441 kts | 50° |
| 2026-05-05 03:41 | 38.35006 | -121.36822 | 31545 ft | 440 kts | 52° |
| 2026-05-05 03:41 | 38.36915 | -121.33775 | 31988 ft | 440 kts | 52° |
| 2026-05-05 03:41 | 38.38799 | -121.30724 | 32417 ft | 441 kts | 53° |
| 2026-05-05 03:41 | 38.40697 | -121.27632 | 32858 ft | 441 kts | 53° |
| 2026-05-05 03:42 | 38.42592 | -121.24546 | 33307 ft | 441 kts | 53° |
| 2026-05-05 03:42 | 38.44469 | -121.21494 | 33722 ft | 441 kts | 52° |
| 2026-05-05 03:42 | 38.46370 | -121.18401 | 34135 ft | 440 kts | 53° |
| 2026-05-05 03:42 | 38.48244 | -121.15278 | 34375 ft | 443 kts | 53° |
| 2026-05-05 03:43 | 38.50131 | -121.12206 | 34595 ft | 446 kts | 52° |
| 2026-05-05 03:43 | 38.52065 | -121.09091 | 34862 ft | 448 kts | 52° |
| 2026-05-05 03:43 | 38.54016 | -121.05951 | 35129 ft | 449 kts | 52° |
| 2026-05-05 03:43 | 38.55939 | -121.02848 | 35383 ft | 451 kts | 52° |
| 2026-05-05 03:44 | 38.57892 | -120.99687 | 35643 ft | 453 kts | 52° |
| 2026-05-05 03:44 | 38.59850 | -120.96505 | 35895 ft | 455 kts | 52° |
| 2026-05-05 03:44 | 38.61807 | -120.93319 | 36171 ft | 456 kts | 52° |
| 2026-05-05 03:44 | 38.63750 | -120.90149 | 36420 ft | 458 kts | 52° |
| 2026-05-05 03:45 | 38.65725 | -120.86921 | 36670 ft | 459 kts | 52° |
| 2026-05-05 03:45 | 38.67705 | -120.83682 | 36906 ft | 461 kts | 52° |
| 2026-05-05 03:45 | 38.71667 | -120.77191 | 37033 ft | 466 kts | 52° |
| 2026-05-05 03:46 | 38.75650 | -120.70653 | 37046 ft | 462 kts | 52° |
| 2026-05-05 03:46 | 38.79560 | -120.64224 | 37053 ft | 457 kts | 53° |
| 2026-05-05 03:47 | 38.83458 | -120.57801 | 37047 ft | 456 kts | 53° |
| 2026-05-05 03:47 | 38.87347 | -120.51380 | 37047 ft | 456 kts | 53° |
| 2026-05-05 03:48 | 38.91252 | -120.44919 | 37050 ft | 457 kts | 53° |
| 2026-05-05 03:48 | 38.95140 | -120.38473 | 37037 ft | 458 kts | 53° |
| 2026-05-05 03:49 | 38.99025 | -120.32019 | 37030 ft | 459 kts | 53° |
| 2026-05-05 03:49 | 39.02922 | -120.25533 | 37029 ft | 459 kts | 53° |
| 2026-05-05 03:50 | 39.06829 | -120.19017 | 37026 ft | 460 kts | 53° |
| 2026-05-05 03:50 | 39.10743 | -120.12475 | 37009 ft | 460 kts | 53° |
| 2026-05-05 03:51 | 39.14630 | -120.05967 | 37013 ft | 460 kts | 53° |
| 2026-05-05 03:51 | 39.18541 | -119.99404 | 37008 ft | 460 kts | 53° |
| 2026-05-05 03:52 | 39.22419 | -119.92882 | 36972 ft | 460 kts | 53° |
| 2026-05-05 03:52 | 39.26296 | -119.86350 | 36973 ft | 460 kts | 53° |
| 2026-05-05 03:53 | 39.30193 | -119.79769 | 36970 ft | 460 kts | 53° |
| 2026-05-05 03:53 | 39.34070 | -119.73209 | 36976 ft | 460 kts | 53° |
| 2026-05-05 03:54 | 39.37958 | -119.66619 | 36938 ft | 460 kts | 53° |
| 2026-05-05 03:54 | 39.41830 | -119.60039 | 36931 ft | 460 kts | 53° |
| 2026-05-05 03:55 | 39.45691 | -119.53467 | 36917 ft | 460 kts | 53° |
| 2026-05-05 03:55 | 39.48255 | -119.49094 | 36927 ft | 460 kts | 53° |